Time;durP1;ratioP1;P1;durP2;ratioP2;P2;SDS_P1;SDS_P2;PMS_P1;PMS_P2;Temp;Humidity;BMP_temperature;BMP_pressure;BME280_temperature;BME280_humidity;BME280_pressure;Samples;Min_cycle;Max_cycle;Signal;HPM_P1;HPM_P2
2021/07/19 00:00:10;;;;;;;;;;;16.90;99.90;;;;;;5092290;28;19994;-72
2021/07/19 00:02:35;;;;;;;;;;;17.00;99.90;;;;;;5090878;28;19916;-72
2021/07/19 00:05:01;;;;;;;;;;;17.00;99.90;;;;;;5102914;28;19908;-72
2021/07/19 00:07:26;;;;;;;;;;;17.00;99.90;;;;;;5112418;28;19912;-72
2021/07/19 00:09:52;;;;;;;;;;;16.90;99.90;;;;;;5112428;28;20336;-72
2021/07/19 00:12:17;;;;;;;;;;;16.90;99.90;;;;;;5111941;28;19908;-72
2021/07/19 00:14:45;;;;;;;;;;;16.80;99.90;;;;;;5111468;28;20348;-72
2021/07/19 00:17:11;;;;;;;;;;;16.80;99.90;;;;;;5108416;28;19908;-71
2021/07/19 00:19:37;;;;;;;;;;;16.70;99.90;;;;;;5108324;28;19915;-72
2021/07/19 00:22:03;;;;;;;;;;;16.70;99.90;;;;;;5108982;28;20043;-74
2021/07/19 00:24:29;;;;;;;;;;;16.60;99.90;;;;;;5108793;28;19911;-72
2021/07/19 00:26:54;;;;;;;;;;;16.60;99.90;;;;;;5108745;28;20283;-73
2021/07/19 00:29:20;;;;;;;;;;;16.60;99.90;;;;;;5109326;28;19919;-72
2021/07/19 00:31:45;;;;;;;;;;;16.60;99.90;;;;;;5111062;28;19908;-73
2021/07/19 00:34:11;;;;;;;;;;;16.50;99.90;;;;;;5099090;28;19954;-73
2021/07/19 00:36:36;;;;;;;;;;;16.60;99.90;;;;;;5094512;28;20011;-73
2021/07/19 00:39:05;;;;;;;;;;;16.50;99.90;;;;;;5094088;28;19912;-73
2021/07/19 00:41:31;;;;;;;;;;;16.50;99.90;;;;;;5095227;28;19934;-73
2021/07/19 00:43:56;;;;;;;;;;;16.50;99.90;;;;;;5095322;28;19908;-73
2021/07/19 00:46:22;;;;;;;;;;;16.50;99.90;;;;;;5094456;28;19916;-72
2021/07/19 00:48:47;;;;;;;;;;;16.50;99.90;;;;;;5095037;28;19912;-74
2021/07/19 00:51:13;;;;;;;;;;;16.40;99.90;;;;;;5094947;28;19908;-73
2021/07/19 00:53:39;;;;;;;;;;;16.30;99.90;;;;;;5095228;28;19951;-74
2021/07/19 00:56:05;;;;;;;;;;;16.30;99.90;;;;;;5094849;28;19973;-74
2021/07/19 00:58:32;;;;;;;;;;;16.20;99.90;;;;;;5093387;28;19908;-74
2021/07/19 01:00:59;;;;;;;;;;;16.20;99.90;;;;;;5094824;28;20280;-74
2021/07/19 01:03:26;;;;;;;;;;;16.20;99.90;;;;;;5092848;28;19912;-73
2021/07/19 01:05:51;;;;;;;;;;;16.10;99.90;;;;;;5094459;28;19952;-73
2021/07/19 01:08:17;;;;;;;;;;;16.10;99.90;;;;;;5094306;28;19995;-74
2021/07/19 01:10:43;;;;;;;;;;;16.10;99.90;;;;;;5093458;28;19908;-73
2021/07/19 01:13:09;;;;;;;;;;;16.00;99.90;;;;;;5094507;28;20307;-73
2021/07/19 01:15:35;;;;;;;;;;;16.00;99.90;;;;;;5094520;28;20292;-72
2021/07/19 01:18:01;;;;;;;;;;;15.90;99.90;;;;;;5092936;28;19909;-73
2021/07/19 01:20:31;;;;;;;;;;;15.90;99.90;;;;;;5094349;28;20377;-73
2021/07/19 01:23:07;;;;;;;;;;;15.80;99.90;;;;;;5090718;28;20225;-73
2021/07/19 01:25:45;;;;;;;;;;;15.70;99.90;;;;;;5093030;28;19908;-72
2021/07/19 01:28:22;;;;;;;;;;;15.70;99.90;;;;;;5093934;28;20315;-73
2021/07/19 01:30:48;;;;;;;;;;;15.70;99.90;;;;;;5094132;28;19999;-74
2021/07/19 01:33:14;;;;;;;;;;;15.70;99.90;;;;;;5094141;28;19998;-73
2021/07/19 01:35:44;;;;;;;;;;;15.70;99.90;;;;;;5094256;28;19908;-74
2021/07/19 01:38:10;;;;;;;;;;;15.70;99.90;;;;;;5093811;28;19915;-73
2021/07/19 01:40:37;;;;;;;;;;;15.60;99.90;;;;;;5094183;28;19915;-73
2021/07/19 01:43:02;;;;;;;;;;;15.60;99.90;;;;;;5092873;28;19908;-74
2021/07/19 01:45:28;;;;;;;;;;;15.60;99.90;;;;;;5093859;28;19985;-74
2021/07/19 01:47:55;;;;;;;;;;;15.50;99.90;;;;;;5093483;28;19989;-73
2021/07/19 01:50:20;;;;;;;;;;;15.50;99.90;;;;;;5094079;28;19955;-73
2021/07/19 01:52:46;;;;;;;;;;;15.50;99.90;;;;;;5091095;28;19915;-74
2021/07/19 01:55:11;;;;;;;;;;;15.50;99.90;;;;;;5093640;28;19944;-73
2021/07/19 01:57:37;;;;;;;;;;;15.40;99.90;;;;;;5092231;28;19908;-73
2021/07/19 02:00:05;;;;;;;;;;;15.30;99.90;;;;;;5093331;28;19919;-74
2021/07/19 02:02:30;;;;;;;;;;;15.20;99.90;;;;;;5093623;28;19931;-73
2021/07/19 02:04:56;;;;;;;;;;;15.20;99.90;;;;;;5093600;28;20372;-73
2021/07/19 02:07:24;;;;;;;;;;;15.20;99.90;;;;;;5093089;28;19908;-72
2021/07/19 02:09:51;;;;;;;;;;;15.10;99.90;;;;;;5093318;28;19934;-72
2021/07/19 02:12:16;;;;;;;;;;;15.10;99.90;;;;;;5093428;28;19987;-73
2021/07/19 02:14:42;;;;;;;;;;;15.10;99.90;;;;;;5093259;28;20397;-72
2021/07/19 02:17:10;;;;;;;;;;;15.10;99.90;;;;;;5093020;28;19912;-72
2021/07/19 02:19:36;;;;;;;;;;;15.10;99.90;;;;;;5093166;28;20391;-73
2021/07/19 02:22:03;;;;;;;;;;;15.10;99.90;;;;;;5090595;28;20012;-72
2021/07/19 02:24:29;;;;;;;;;;;15.10;99.90;;;;;;5092897;28;19919;-73
2021/07/19 02:26:55;;;;;;;;;;;15.10;99.90;;;;;;5092668;28;19919;-72
2021/07/19 02:29:21;;;;;;;;;;;15.00;99.90;;;;;;5092824;28;19928;-73
2021/07/19 02:31:48;;;;;;;;;;;15.00;99.90;;;;;;5093075;28;20370;-71
2021/07/19 02:34:14;;;;;;;;;;;15.00;99.90;;;;;;5091576;28;19908;-73
2021/07/19 02:36:40;;;;;;;;;;;15.00;99.90;;;;;;5092552;28;19997;-73
2021/07/19 02:39:06;;;;;;;;;;;14.90;99.90;;;;;;5092830;28;20129;-73
2021/07/19 02:41:32;;;;;;;;;;;14.90;99.90;;;;;;5092699;28;19908;-73
2021/07/19 02:44:00;;;;;;;;;;;14.90;99.90;;;;;;5092703;28;19955;-73
2021/07/19 02:46:27;;;;;;;;;;;14.90;99.90;;;;;;5092125;28;19924;-73
2021/07/19 02:48:53;;;;;;;;;;;14.80;99.90;;;;;;5092924;28;20174;-74
2021/07/19 02:51:20;;;;;;;;;;;14.70;99.90;;;;;;5092596;28;19915;-73
2021/07/19 02:53:48;;;;;;;;;;;14.70;99.90;;;;;;5089839;28;19918;-73
2021/07/19 02:56:13;;;;;;;;;;;14.70;99.90;;;;;;5091612;28;20463;-74
2021/07/19 02:58:40;;;;;;;;;;;14.70;99.90;;;;;;5092509;28;20011;-73
2021/07/19 03:01:08;;;;;;;;;;;14.70;99.90;;;;;;5092492;28;20053;-73
2021/07/19 03:03:35;;;;;;;;;;;14.70;99.90;;;;;;5091174;28;20284;-73
2021/07/19 03:06:11;;;;;;;;;;;14.80;99.90;;;;;;5091897;28;20281;-73
2021/07/19 03:08:38;;;;;;;;;;;14.80;99.90;;;;;;5092138;28;19912;-74
2021/07/19 03:11:09;;;;;;;;;;;14.80;99.90;;;;;;5092172;28;19908;-73
2021/07/19 03:13:36;;;;;;;;;;;14.80;99.90;;;;;;5090848;28;19918;-71
2021/07/19 03:16:02;;;;;;;;;;;14.80;99.90;;;;;;5091714;28;19908;-74
2021/07/19 03:18:28;;;;;;;;;;;14.70;99.90;;;;;;5092072;28;19908;-73
2021/07/19 03:20:54;;;;;;;;;;;14.70;99.90;;;;;;5091923;28;20284;-71
2021/07/19 03:23:22;;;;;;;;;;;14.70;99.90;;;;;;5089227;28;19908;-71
2021/07/19 03:25:48;;;;;;;;;;;14.70;99.90;;;;;;5090594;28;20322;-72
2021/07/19 03:28:16;;;;;;;;;;;14.70;99.90;;;;;;5091451;28;19916;-71
2021/07/19 03:30:43;;;;;;;;;;;14.70;99.90;;;;;;5091814;28;19915;-71
2021/07/19 03:33:09;;;;;;;;;;;14.70;99.90;;;;;;5091882;28;19908;-72
2021/07/19 03:35:35;;;;;;;;;;;14.70;99.90;;;;;;5091575;28;20027;-72
2021/07/19 03:38:01;;;;;;;;;;;14.70;99.90;;;;;;5091437;28;19912;-71
2021/07/19 03:40:27;;;;;;;;;;;14.60;99.90;;;;;;5091628;28;19915;-71
2021/07/19 03:42:57;;;;;;;;;;;14.60;99.90;;;;;;5091672;28;19908;-71
2021/07/19 03:45:23;;;;;;;;;;;14.60;99.90;;;;;;5091499;28;19955;-72
2021/07/19 03:47:49;;;;;;;;;;;14.50;99.90;;;;;;5091079;28;19962;-71
2021/07/19 03:50:15;;;;;;;;;;;14.50;99.90;;;;;;5091559;28;19908;-71
2021/07/19 03:52:41;;;;;;;;;;;14.60;99.90;;;;;;5088693;28;19951;-71
2021/07/19 03:55:07;;;;;;;;;;;14.60;99.90;;;;;;5091413;28;19951;-71
2021/07/19 03:57:34;;;;;;;;;;;14.60;99.90;;;;;;5090777;28;19954;-71
2021/07/19 04:00:00;;;;;;;;;;;14.60;99.90;;;;;;5091508;28;19908;-71
2021/07/19 04:02:26;;;;;;;;;;;14.60;99.90;;;;;;5090055;28;19958;-72
2021/07/19 04:05:02;;;;;;;;;;;14.60;99.90;;;;;;5091299;28;19916;-72
2021/07/19 04:07:28;;;;;;;;;;;14.60;99.90;;;;;;5090179;28;19967;-72
2021/07/19 04:09:54;;;;;;;;;;;14.60;99.90;;;;;;5091306;28;19908;-72
2021/07/19 04:12:19;;;;;;;;;;;14.60;99.90;;;;;;5091116;28;19943;-72
2021/07/19 04:14:47;;;;;;;;;;;14.60;99.90;;;;;;5091342;28;19958;-71
2021/07/19 04:17:13;;;;;;;;;;;14.60;99.90;;;;;;5090761;28;20402;-72
2021/07/19 04:19:38;;;;;;;;;;;14.60;99.90;;;;;;5091117;28;19946;-72
2021/07/19 04:22:04;;;;;;;;;;;14.60;99.90;;;;;;5088435;28;19908;-71
2021/07/19 04:24:31;;;;;;;;;;;14.60;99.90;;;;;;5091015;28;20364;-72
2021/07/19 04:26:57;;;;;;;;;;;14.70;99.90;;;;;;5090509;28;20061;-72
2021/07/19 04:29:24;;;;;;;;;;;14.70;99.90;;;;;;5091072;28;20007;-71
2021/07/19 04:31:56;;;;;;;;;;;14.70;99.90;;;;;;5090959;28;19909;-72
2021/07/19 04:34:31;;;;;;;;;;;14.80;99.90;;;;;;5091064;28;19908;-72
2021/07/19 04:36:58;;;;;;;;;;;14.80;99.90;;;;;;5090520;28;20349;-72
2021/07/19 04:39:23;;;;;;;;;;;14.90;99.90;;;;;;5089718;28;20391;-72
2021/07/19 04:41:49;;;;;;;;;;;14.90;99.90;;;;;;5090997;28;19908;-72
2021/07/19 04:44:14;;;;;;;;;;;15.00;99.90;;;;;;5090866;28;19912;-72
2021/07/19 04:46:40;;;;;;;;;;;15.10;99.90;;;;;;5090364;28;19912;-72
2021/07/19 04:49:07;;;;;;;;;;;15.20;99.90;;;;;;5090666;28;19919;-70
2021/07/19 04:51:33;;;;;;;;;;;15.30;99.90;;;;;;5089402;28;19947;-72
2021/07/19 04:53:59;;;;;;;;;;;15.40;99.90;;;;;;5092522;28;19947;-72
2021/07/19 04:56:25;;;;;;;;;;;15.50;99.90;;;;;;5110798;28;19915;-72
2021/07/19 04:58:51;;;;;;;;;;;15.50;99.90;;;;;;5110981;28;19907;-72
2021/07/19 05:01:18;;;;;;;;;;;15.60;99.90;;;;;;5111034;28;19908;-72
2021/07/19 05:03:45;;;;;;;;;;;15.60;99.90;;;;;;5111055;28;19953;-72
2021/07/19 05:06:11;;;;;;;;;;;15.70;99.90;;;;;;5110941;28;20014;-71
2021/07/19 05:08:37;;;;;;;;;;;15.80;99.90;;;;;;5111003;28;20355;-72
2021/07/19 05:11:02;;;;;;;;;;;15.90;99.90;;;;;;5111068;28;20265;-71
2021/07/19 05:13:28;;;;;;;;;;;16.00;99.90;;;;;;5111114;28;19911;-71
2021/07/19 05:15:54;;;;;;;;;;;16.10;99.90;;;;;;5110520;28;19912;-72
2021/07/19 05:18:20;;;;;;;;;;;16.20;99.90;;;;;;5112535;28;19908;-72
2021/07/19 05:20:47;;;;;;;;;;;16.30;99.90;;;;;;5114844;28;19912;-72
2021/07/19 05:23:13;;;;;;;;;;;16.40;99.90;;;;;;5095082;28;19909;-72
2021/07/19 05:25:38;;;;;;;;;;;16.50;99.90;;;;;;5094050;28;19918;-71
2021/07/19 05:28:05;;;;;;;;;;;16.60;99.90;;;;;;5093738;28;19918;-74
2021/07/19 05:30:31;;;;;;;;;;;16.80;99.90;;;;;;5094270;28;19931;-73
2021/07/19 05:32:57;;;;;;;;;;;17.00;99.90;;;;;;5100351;28;19908;-73
2021/07/19 05:35:23;;;;;;;;;;;17.30;99.90;;;;;;5114606;28;20333;-73
2021/07/19 05:37:49;;;;;;;;;;;17.50;99.90;;;;;;5114261;28;20569;-74
2021/07/19 05:40:15;;;;;;;;;;;17.80;99.90;;;;;;5114532;28;19916;-73
2021/07/19 05:42:41;;;;;;;;;;;18.00;99.90;;;;;;5114529;28;20288;-72
2021/07/19 05:45:10;;;;;;;;;;;18.30;99.90;;;;;;5114321;28;19916;-74
2021/07/19 05:47:36;;;;;;;;;;;18.50;99.90;;;;;;5113930;28;20010;-73
2021/07/19 05:50:02;;;;;;;;;;;18.60;99.90;;;;;;5114441;28;19950;-73
2021/07/19 05:52:27;;;;;;;;;;;18.70;99.90;;;;;;5102488;28;19966;-74
2021/07/19 05:54:53;;;;;;;;;;;18.90;99.90;;;;;;5093749;28;20369;-72
2021/07/19 05:57:18;;;;;;;;;;;19.00;99.90;;;;;;5093373;28;19915;-74
2021/07/19 05:59:44;;;;;;;;;;;19.00;99.90;;;;;;5093787;28;19915;-74
2021/07/19 06:02:09;;;;;;;;;;;19.00;99.90;;;;;;5093780;28;19995;-72
2021/07/19 06:04:35;;;;;;;;;;;19.10;99.90;;;;;;5093835;28;19919;-74
2021/07/19 06:07:00;;;;;;;;;;;19.30;99.90;;;;;;5093289;28;19908;-74
2021/07/19 06:09:26;;;;;;;;;;;19.40;99.90;;;;;;5093454;28;19912;-73
2021/07/19 06:11:51;;;;;;;;;;;19.60;99.90;;;;;;5093549;28;19908;-72
2021/07/19 06:14:17;;;;;;;;;;;19.80;99.90;;;;;;5093600;28;19973;-74
2021/07/19 06:16:42;;;;;;;;;;;19.90;99.90;;;;;;5093003;28;19947;-74
2021/07/19 06:19:08;;;;;;;;;;;20.10;99.90;;;;;;5093454;28;20371;-74
2021/07/19 06:21:34;;;;;;;;;;;20.20;99.90;;;;;;5091763;28;19908;-72
2021/07/19 06:23:59;;;;;;;;;;;20.40;99.90;;;;;;5092318;28;19923;-72
2021/07/19 06:26:25;;;;;;;;;;;20.60;99.90;;;;;;5092803;28;20010;-74
2021/07/19 06:28:50;;;;;;;;;;;21.10;99.90;;;;;;5092792;28;20323;-74
2021/07/19 06:31:16;;;;;;;;;;;21.80;99.90;;;;;;5092864;28;19908;-74
2021/07/19 06:33:41;;;;;;;;;;;22.20;99.90;;;;;;5085981;28;19909;-73
2021/07/19 06:36:07;;;;;;;;;;;22.70;99.90;;;;;;5087131;28;20003;-73
2021/07/19 06:38:32;;;;;;;;;;;23.10;99.90;;;;;;5087016;28;19915;-72
2021/07/19 06:40:58;;;;;;;;;;;23.60;99.90;;;;;;5090794;28;19908;-70
2021/07/19 06:43:24;;;;;;;;;;;23.70;99.90;;;;;;5091892;28;20023;-73
2021/07/19 06:45:49;;;;;;;;;;;23.40;99.90;;;;;;5091925;28;19923;-73
2021/07/19 06:48:15;;;;;;;;;;;23.00;99.90;;;;;;5088895;28;19916;-73
2021/07/19 06:50:41;;;;;;;;;;;22.70;99.90;;;;;;5091214;28;19908;-72
2021/07/19 06:53:07;;;;;;;;;;;22.80;99.90;;;;;;5094254;28;19908;-73
2021/07/19 06:55:32;;;;;;;;;;;23.20;99.90;;;;;;5090124;28;19909;-72
2021/07/19 06:57:58;;;;;;;;;;;23.80;99.90;;;;;;5089731;28;19908;-73
2021/07/19 07:00:23;;;;;;;;;;;24.30;99.90;;;;;;5076808;28;20032;-73
2021/07/19 07:02:49;;;;;;;;;;;24.90;99.90;;;;;;5077292;28;19915;-73
2021/07/19 07:05:15;;;;;;;;;;;25.30;99.90;;;;;;5084098;28;19912;-73
2021/07/19 07:07:40;;;;;;;;;;;25.50;99.90;;;;;;5073772;28;20679;-73
2021/07/19 07:10:06;;;;;;;;;;;25.80;99.90;;;;;;5085081;28;19954;-73
2021/07/19 07:12:32;;;;;;;;;;;26.30;99.90;;;;;;5091844;28;19918;-73
2021/07/19 07:14:57;;;;;;;;;;;26.50;99.90;;;;;;5092368;28;20002;-72
2021/07/19 07:17:23;;;;;;;;;;;26.90;99.90;;;;;;5092155;28;19912;-73
2021/07/19 07:19:48;;;;;;;;;;;27.00;99.90;;;;;;5090357;28;19916;-73
2021/07/19 07:22:14;;;;;;;;;;;26.90;99.90;;;;;;5097352;28;19908;-73
2021/07/19 07:24:41;;;;;;;;;;;27.10;99.90;;;;;;5099103;28;19909;-71
2021/07/19 07:27:08;;;;;;;;;;;27.40;99.90;;;;;;5112553;28;19912;-73
2021/07/19 07:29:33;;;;;;;;;;;27.90;99.90;;;;;;5112876;28;20415;-71
2021/07/19 07:31:59;;;;;;;;;;;28.40;99.90;;;;;;5112742;28;19991;-73
2021/07/19 07:34:24;;;;;;;;;;;28.40;99.90;;;;;;5112417;28;19914;-73
2021/07/19 07:36:50;;;;;;;;;;;28.70;99.90;;;;;;5083508;28;19908;-73
2021/07/19 07:39:15;;;;;;;;;;;29.10;99.60;;;;;;5083448;28;19948;-72
2021/07/19 07:41:41;;;;;;;;;;;29.50;99.10;;;;;;5087060;28;19917;-71
2021/07/19 07:44:06;;;;;;;;;;;29.60;99.90;;;;;;5110098;28;19912;-71
2021/07/19 07:46:32;;;;;;;;;;;29.30;97.70;;;;;;5110916;28;19915;-73
2021/07/19 07:48:57;;;;;;;;;;;29.50;99.20;;;;;;5088858;28;20003;-71
2021/07/19 07:51:23;;;;;;;;;;;29.50;97.30;;;;;;5090425;28;20369;-71
2021/07/19 07:53:48;;;;;;;;;;;29.50;97.80;;;;;;5087805;28;19908;-72
2021/07/19 07:56:14;;;;;;;;;;;29.60;97.70;;;;;;5080048;28;19908;-74
2021/07/19 07:58:40;;;;;;;;;;;29.40;98.00;;;;;;5082820;28;20480;-74
2021/07/19 08:01:05;;;;;;;;;;;29.30;99.10;;;;;;5081959;28;20392;-71
2021/07/19 08:03:31;;;;;;;;;;;28.90;99.40;;;;;;5079237;28;19912;-71
2021/07/19 08:05:56;;;;;;;;;;;28.80;99.60;;;;;;5075450;28;19916;-72
2021/07/19 08:08:22;;;;;;;;;;;28.90;98.80;;;;;;5077598;28;19912;-71
2021/07/19 08:10:48;;;;;;;;;;;28.90;99.40;;;;;;5080807;28;19909;-71
2021/07/19 08:13:13;;;;;;;;;;;28.90;99.20;;;;;;5090726;28;19964;-71
2021/07/19 08:15:39;;;;;;;;;;;29.10;99.90;;;;;;5091121;28;19920;-71
2021/07/19 08:18:04;;;;;;;;;;;29.30;96.90;;;;;;5090867;28;19961;-73
2021/07/19 08:20:30;;;;;;;;;;;29.70;97.80;;;;;;5089859;28;19908;-71
2021/07/19 08:22:56;;;;;;;;;;;29.80;98.80;;;;;;5091177;28;19912;-71
2021/07/19 08:25:21;;;;;;;;;;;29.90;97.50;;;;;;5090851;28;20495;-71
2021/07/19 08:27:48;;;;;;;;;;;30.10;96.50;;;;;;5090898;28;19919;-71
2021/07/19 08:30:14;;;;;;;;;;;30.40;95.30;;;;;;5091291;28;19915;-71
2021/07/19 08:32:40;;;;;;;;;;;30.60;96.60;;;;;;5091347;28;19938;-71
2021/07/19 08:35:10;;;;;;;;;;;30.30;96.70;;;;;;5091196;28;19937;-71
2021/07/19 08:37:43;;;;;;;;;;;30.20;96.00;;;;;;5090928;28;19970;-72
2021/07/19 08:40:10;;;;;;;;;;;30.30;97.40;;;;;;5091371;28;20003;-73
2021/07/19 08:42:37;;;;;;;;;;;30.50;96.40;;;;;;5086237;28;20258;-71
2021/07/19 08:45:06;;;;;;;;;;;30.00;94.60;;;;;;5076967;28;19916;-72
2021/07/19 08:47:36;;;;;;;;;;;29.70;96.50;;;;;;5074465;28;20039;-71
2021/07/19 08:50:01;;;;;;;;;;;29.80;97.30;;;;;;5092432;28;19907;-72
2021/07/19 08:52:27;;;;;;;;;;;29.90;95.90;;;;;;5103639;28;20004;-71
2021/07/19 08:54:53;;;;;;;;;;;30.20;96.00;;;;;;5116061;28;19908;-71
2021/07/19 08:57:20;;;;;;;;;;;30.10;95.80;;;;;;5111355;28;19953;-71
2021/07/19 08:59:46;;;;;;;;;;;30.30;98.50;;;;;;5099791;28;19912;-72
2021/07/19 09:02:11;;;;;;;;;;;30.70;96.10;;;;;;5088691;28;19916;-74
2021/07/19 09:04:37;;;;;;;;;;;31.00;94.80;;;;;;5087347;28;19909;-72
2021/07/19 09:07:03;;;;;;;;;;;31.10;98.10;;;;;;5094102;28;19908;-71
2021/07/19 09:09:30;;;;;;;;;;;31.30;95.90;;;;;;5094742;28;19923;-71
2021/07/19 09:11:57;;;;;;;;;;;31.50;94.30;;;;;;5094820;28;19916;-72
2021/07/19 09:14:22;;;;;;;;;;;31.50;94.30;;;;;;5094638;28;20380;-72
2021/07/19 09:16:48;;;;;;;;;;;31.40;94.80;;;;;;5094226;28;19908;-73
2021/07/19 09:19:15;;;;;;;;;;;31.30;94.30;;;;;;5091760;28;20356;-73
2021/07/19 09:21:42;;;;;;;;;;;31.40;92.80;;;;;;5092674;28;19955;-72
2021/07/19 09:24:09;;;;;;;;;;;31.60;94.70;;;;;;5089168;28;20324;-71
2021/07/19 09:26:35;;;;;;;;;;;31.80;92.40;;;;;;5093873;28;20287;-72
2021/07/19 09:29:02;;;;;;;;;;;31.90;92.40;;;;;;5088850;28;20288;-72
2021/07/19 09:31:31;;;;;;;;;;;32.20;94.30;;;;;;5082174;28;20349;-72
2021/07/19 09:33:58;;;;;;;;;;;32.30;93.60;;;;;;5101621;28;19965;-72
2021/07/19 09:36:24;;;;;;;;;;;32.00;91.70;;;;;;5114034;28;19915;-71
2021/07/19 09:39:02;;;;;;;;;;;30.90;93.70;;;;;;5113457;28;20348;-71
2021/07/19 09:41:27;;;;;;;;;;;30.60;95.60;;;;;;5114784;28;19963;-71
2021/07/19 09:43:53;;;;;;;;;;;30.30;94.90;;;;;;5114519;28;20376;-71
2021/07/19 09:46:18;;;;;;;;;;;29.50;95.90;;;;;;5113987;28;20032;-73
2021/07/19 09:48:44;;;;;;;;;;;29.60;96.80;;;;;;5114026;28;20288;-71
2021/07/19 09:51:09;;;;;;;;;;;29.40;95.80;;;;;;5099279;28;19908;-72
2021/07/19 09:53:37;;;;;;;;;;;29.20;95.10;;;;;;5088326;28;20377;-72
2021/07/19 09:56:22;;;;;;;;;;;28.50;96.20;;;;;;5096017;28;20373;-71
2021/07/19 09:58:48;;;;;;;;;;;27.70;96.20;;;;;;5088791;28;19916;-72
2021/07/19 10:01:26;;;;;;;;;;;27.60;98.00;;;;;;5091728;28;19908;-72
2021/07/19 10:04:02;;;;;;;;;;;27.60;98.10;;;;;;5083005;28;19909;-72
2021/07/19 10:06:28;;;;;;;;;;;28.30;98.70;;;;;;5092988;28;19915;-72
2021/07/19 10:08:54;;;;;;;;;;;28.80;97.10;;;;;;5091010;28;19954;-72
2021/07/19 10:11:20;;;;;;;;;;;29.30;97.00;;;;;;5093866;28;20400;-72
2021/07/19 10:13:47;;;;;;;;;;;29.80;95.80;;;;;;5091207;28;19940;-73
2021/07/19 10:16:13;;;;;;;;;;;30.30;95.50;;;;;;5113687;28;19911;-71
2021/07/19 10:18:39;;;;;;;;;;;29.90;94.30;;;;;;5114090;28;19908;-71
2021/07/19 10:21:06;;;;;;;;;;;30.00;95.10;;;;;;5099298;28;19908;-71
2021/07/19 10:23:32;;;;;;;;;;;29.90;93.80;;;;;;5083402;28;20406;-72
2021/07/19 10:25:57;;;;;;;;;;;29.40;93.90;;;;;;5097920;28;19958;-71
2021/07/19 10:28:23;;;;;;;;;;;28.60;95.60;;;;;;5088165;28;19912;-71
2021/07/19 10:30:48;;;;;;;;;;;28.30;95.70;;;;;;5074946;28;19912;-71
2021/07/19 10:33:14;;;;;;;;;;;28.50;95.00;;;;;;5082033;28;19919;-72
2021/07/19 10:35:41;;;;;;;;;;;28.40;94.60;;;;;;5090868;28;19912;-71
2021/07/19 10:38:20;;;;;;;;;;;28.10;95.10;;;;;;5089934;28;19919;-72
2021/07/19 10:40:47;;;;;;;;;;;27.80;96.40;;;;;;5086412;28;20064;-71
2021/07/19 10:43:16;;;;;;;;;;;27.60;95.80;;;;;;5092119;28;19908;-73
2021/07/19 10:45:48;;;;;;;;;;;27.60;95.30;;;;;;5091034;28;19923;-73
2021/07/19 10:48:29;;;;;;;;;;;27.20;97.20;;;;;;5090576;28;19912;-71
2021/07/19 10:50:57;;;;;;;;;;;27.30;96.40;;;;;;5082508;28;20004;-72
2021/07/19 10:53:24;;;;;;;;;;;27.00;95.10;;;;;;5081777;28;19908;-72
2021/07/19 10:56:06;;;;;;;;;;;26.80;96.20;;;;;;5082911;28;19914;-72
2021/07/19 10:58:36;;;;;;;;;;;26.60;96.50;;;;;;5086159;28;19908;-72
2021/07/19 11:01:01;;;;;;;;;;;26.70;97.20;;;;;;5090779;28;20386;-72
2021/07/19 11:03:35;;;;;;;;;;;27.10;98.50;;;;;;5076494;28;19915;-72
2021/07/19 11:06:01;;;;;;;;;;;27.60;97.50;;;;;;5082946;28;19908;-74
2021/07/19 11:08:26;;;;;;;;;;;27.80;94.50;;;;;;5093371;28;19918;-71
2021/07/19 11:10:53;;;;;;;;;;;27.50;95.10;;;;;;5071443;28;19909;-72
2021/07/19 11:13:37;;;;;;;;;;;27.20;96.40;;;;;;5074380;28;19909;-72
2021/07/19 11:16:13;;;;;;;;;;;27.30;98.60;;;;;;5081937;28;20002;-72
2021/07/19 11:18:38;;;;;;;;;;;27.70;95.40;;;;;;5086938;28;20155;-72
2021/07/19 11:21:04;;;;;;;;;;;27.80;94.80;;;;;;5082653;28;19908;-71
2021/07/19 11:23:31;;;;;;;;;;;27.90;94.40;;;;;;5085897;28;19995;-70
2021/07/19 11:25:58;;;;;;;;;;;28.30;95.50;;;;;;5072314;28;19923;-69
2021/07/19 11:28:25;;;;;;;;;;;28.90;93.80;;;;;;5090963;28;19912;-70
2021/07/19 11:31:01;;;;;;;;;;;29.30;95.10;;;;;;5088718;28;19915;-70
2021/07/19 11:33:31;;;;;;;;;;;30.10;94.70;;;;;;5090778;28;19912;-69
2021/07/19 11:35:57;;;;;;;;;;;29.70;91.70;;;;;;5074270;28;19953;-69
2021/07/19 11:38:22;;;;;;;;;;;29.20;90.70;;;;;;5097805;28;19912;-69
2021/07/19 11:40:48;;;;;;;;;;;28.60;92.00;;;;;;5112873;28;19915;-70
2021/07/19 11:43:22;;;;;;;;;;;28.30;93.10;;;;;;5112278;28;19915;-69
2021/07/19 11:45:53;;;;;;;;;;;28.20;92.70;;;;;;5111975;28;20078;-71
2021/07/19 11:48:21;;;;;;;;;;;28.50;94.10;;;;;;5089848;28;19919;-70
2021/07/19 11:50:48;;;;;;;;;;;29.10;93.50;;;;;;5089481;28;20053;-69
2021/07/19 11:53:14;;;;;;;;;;;29.60;92.00;;;;;;5086620;28;19908;-70
2021/07/19 11:55:39;;;;;;;;;;;29.30;90.10;;;;;;5084937;28;19921;-70
2021/07/19 11:58:06;;;;;;;;;;;28.70;91.30;;;;;;5088658;28;19915;-71
2021/07/19 12:00:36;;;;;;;;;;;28.30;92.40;;;;;;5089789;28;19914;-70
2021/07/19 12:03:11;;;;;;;;;;;28.10;93.90;;;;;;5087098;28;19912;-70
2021/07/19 12:05:37;;;;;;;;;;;28.20;92.60;;;;;;5090107;28;19912;-71
2021/07/19 12:08:07;;;;;;;;;;;28.70;93.20;;;;;;5084800;28;20314;-69
2021/07/19 12:10:37;;;;;;;;;;;29.40;93.10;;;;;;5087547;28;19919;-72
2021/07/19 12:13:13;;;;;;;;;;;29.90;91.60;;;;;;5091698;28;19912;-70
2021/07/19 12:15:48;;;;;;;;;;;30.00;91.80;;;;;;5091462;28;19908;-69
2021/07/19 12:18:13;;;;;;;;;;;30.10;89.60;;;;;;5091039;28;19908;-69
2021/07/19 12:20:39;;;;;;;;;;;29.80;90.80;;;;;;5089708;28;20287;-70
2021/07/19 12:23:04;;;;;;;;;;;29.30;90.80;;;;;;5106782;28;19915;-71
2021/07/19 12:25:30;;;;;;;;;;;29.10;90.50;;;;;;5080789;28;20354;-69
2021/07/19 12:28:02;;;;;;;;;;;28.90;90.20;;;;;;5078806;28;19951;-70
2021/07/19 12:30:28;;;;;;;;;;;28.40;91.20;;;;;;5089218;28;19908;-72
2021/07/19 12:32:53;;;;;;;;;;;28.10;90.70;;;;;;5084093;28;19961;-71
2021/07/19 12:35:23;;;;;;;;;;;28.00;91.60;;;;;;5090279;28;19925;-73
2021/07/19 12:37:58;;;;;;;;;;;28.10;90.60;;;;;;5083189;28;19908;-73
2021/07/19 12:40:26;;;;;;;;;;;28.40;92.50;;;;;;5087439;28;20250;-71
2021/07/19 12:42:52;;;;;;;;;;;28.70;89.40;;;;;;5090298;28;19908;-71
2021/07/19 12:45:18;;;;;;;;;;;29.10;91.70;;;;;;5094914;28;19916;-71
2021/07/19 12:47:45;;;;;;;;;;;29.60;92.30;;;;;;5090709;28;19931;-72
2021/07/19 12:50:12;;;;;;;;;;;30.30;90.10;;;;;;5092063;28;20280;-71
2021/07/19 12:52:38;;;;;;;;;;;30.40;88.30;;;;;;5091747;28;19943;-71
2021/07/19 12:55:10;;;;;;;;;;;29.70;88.40;;;;;;5090475;28;20335;-71
2021/07/19 12:57:39;;;;;;;;;;;29.20;87.90;;;;;;5093938;28;20388;-71
2021/07/19 13:00:08;;;;;;;;;;;28.90;90.10;;;;;;5090912;28;20003;-71
2021/07/19 13:02:33;;;;;;;;;;;29.10;91.40;;;;;;5094422;28;19908;-71
2021/07/19 13:05:08;;;;;;;;;;;29.60;91.60;;;;;;5084791;28;20479;-71
2021/07/19 13:07:35;;;;;;;;;;;30.20;88.70;;;;;;5080756;28;19912;-72
2021/07/19 13:10:05;;;;;;;;;;;30.20;86.80;;;;;;5081235;28;19908;-71
2021/07/19 13:12:33;;;;;;;;;;;30.10;87.60;;;;;;5087801;28;19915;-72
2021/07/19 13:14:59;;;;;;;;;;;30.10;89.10;;;;;;5089721;28;19995;-71
2021/07/19 13:17:29;;;;;;;;;;;30.20;88.20;;;;;;5093731;28;19915;-71
2021/07/19 13:20:06;;;;;;;;;;;29.80;85.30;;;;;;5093168;28;20012;-71
2021/07/19 13:22:32;;;;;;;;;;;29.40;86.80;;;;;;5098026;28;19914;-72
2021/07/19 13:24:58;;;;;;;;;;;29.30;84.40;;;;;;5089743;28;19912;-71
2021/07/19 13:27:25;;;;;;;;;;;29.60;83.90;;;;;;5081172;28;19908;-71
2021/07/19 13:29:54;;;;;;;;;;;29.60;86.20;;;;;;5085124;28;20292;-72
2021/07/19 13:32:21;;;;;;;;;;;29.80;88.30;;;;;;5092768;28;19915;-73
2021/07/19 13:35:07;;;;;;;;;;;30.00;80.80;;;;;;5089446;28;19916;-71
2021/07/19 13:37:34;;;;;;;;;;;30.40;82.70;;;;;;5080757;28;19909;-72
2021/07/19 13:40:26;;;;;;;;;;;30.60;83.40;;;;;;5088759;28;19915;-71
2021/07/19 13:43:00;;;;;;;;;;;30.80;84.40;;;;;;5091806;28;19961;-71
2021/07/19 13:45:25;;;;;;;;;;;30.70;86.50;;;;;;5088354;28;20011;-72
2021/07/19 13:47:53;;;;;;;;;;;30.70;81.60;;;;;;5089773;28;20706;-72
2021/07/19 13:50:20;;;;;;;;;;;30.90;80.40;;;;;;5096425;28;19958;-72
2021/07/19 13:52:48;;;;;;;;;;;30.60;80.50;;;;;;5094031;28;19981;-71
2021/07/19 13:55:14;;;;;;;;;;;30.70;81.20;;;;;;5093142;28;19908;-71
2021/07/19 13:57:39;;;;;;;;;;;30.90;89.10;;;;;;5092319;28;19915;-71
2021/07/19 14:00:05;;;;;;;;;;;31.10;81.20;;;;;;5077174;28;20527;-74
2021/07/19 14:02:31;;;;;;;;;;;31.50;82.20;;;;;;5086853;28;19916;-71
2021/07/19 14:04:56;;;;;;;;;;;31.30;79.20;;;;;;5080985;28;20423;-71
2021/07/19 14:07:22;;;;;;;;;;;30.80;82.10;;;;;;5087999;28;19923;-71
2021/07/19 14:09:47;;;;;;;;;;;30.60;81.90;;;;;;5083358;28;19912;-72
2021/07/19 14:12:13;;;;;;;;;;;30.50;83.20;;;;;;5089615;28;19908;-74
2021/07/19 14:14:38;;;;;;;;;;;30.30;82.40;;;;;;5090591;28;20384;-71